Time;durP1;ratioP1;P1;durP2;ratioP2;P2;SDS_P1;SDS_P2;PMS_P1;PMS_P2;Temp;Humidity;BMP_temperature;BMP_pressure;BME280_temperature;BME280_humidity;BME280_pressure;Samples;Min_cycle;Max_cycle;Signal;HPM_P1;HPM_P2
2022/07/03 00:00:17;;;;;;;2.88;1.70;;;20.60;99.90;;;;;;5136561;27;20637;-57
2022/07/03 00:02:42;;;;;;;1.67;1.50;;;20.60;99.90;;;;;;5136300;27;20543;-58
2022/07/03 00:05:08;;;;;;;4.28;1.77;;;20.60;99.90;;;;;;5136614;27;20175;-58
2022/07/03 00:07:34;;;;;;;2.92;1.80;;;20.60;99.90;;;;;;5136376;27;20207;-58
2022/07/03 00:10:00;;;;;;;4.10;1.77;;;20.50;99.90;;;;;;5136695;27;20172;-57
2022/07/03 00:12:25;;;;;;;5.25;1.65;;;20.40;99.90;;;;;;5118325;27;20544;-57
2022/07/03 00:14:51;;;;;;;1.67;1.52;;;20.20;99.90;;;;;;5136836;27;20233;-57
2022/07/03 00:17:17;;;;;;;3.67;2.00;;;20.20;99.90;;;;;;5136393;27;20168;-57
2022/07/03 00:19:42;;;;;;;3.97;1.90;;;20.20;99.90;;;;;;5136259;27;20184;-56
2022/07/03 00:22:12;;;;;;;4.80;1.70;;;20.20;99.90;;;;;;5136521;27;20164;-57
2022/07/03 00:24:44;;;;;;;2.20;1.65;;;20.10;99.90;;;;;;5136127;27;20664;-57
2022/07/03 00:27:11;;;;;;;2.47;1.33;;;20.00;99.90;;;;;;5136120;27;20264;-56
2022/07/03 00:29:40;;;;;;;4.15;1.73;;;20.10;99.90;;;;;;5136145;27;20164;-57
2022/07/03 00:32:09;;;;;;;9.75;1.80;;;20.00;99.90;;;;;;5136072;27;20164;-56
2022/07/03 00:34:35;;;;;;;2.67;1.60;;;19.90;99.90;;;;;;5135968;27;20186;-57
2022/07/03 00:37:01;;;;;;;6.07;1.83;;;19.90;99.90;;;;;;5136220;27;20259;-57
2022/07/03 00:39:28;;;;;;;3.58;1.70;;;19.90;99.90;;;;;;5135912;27;20568;-58
2022/07/03 00:42:02;;;;;;;3.92;1.88;;;19.90;99.90;;;;;;5136233;27;20160;-57
2022/07/03 00:44:29;;;;;;;2.70;1.67;;;19.90;99.90;;;;;;5135864;27;20155;-57
2022/07/03 00:46:56;;;;;;;3.53;1.58;;;19.90;99.90;;;;;;5135986;27;20199;-57
2022/07/03 00:49:25;;;;;;;3.70;1.88;;;19.90;99.90;;;;;;5134717;27;20236;-57
2022/07/03 00:51:52;;;;;;;5.35;1.92;;;19.90;99.90;;;;;;5117540;27;20175;-56
2022/07/03 00:54:21;;;;;;;7.93;2.58;;;19.90;99.90;;;;;;5135637;27;20632;-57
2022/07/03 00:56:54;;;;;;;16.95;3.53;;;19.80;99.90;;;;;;5135561;27;20176;-57
2022/07/03 00:59:19;;;;;;;8.23;2.63;;;19.60;99.90;;;;;;5135610;27;20516;-58
2022/07/03 01:01:46;;;;;;;13.32;2.65;;;19.50;99.90;;;;;;5135397;27;20186;-57
2022/07/03 01:04:47;;;;;;;18.00;2.85;;;19.50;99.90;;;;;;5135451;27;20582;-57
2022/07/03 01:07:38;;;;;;;13.80;3.30;;;19.60;99.90;;;;;;5135305;27;20195;-57
2022/07/03 01:10:16;;;;;;;11.82;2.63;;;19.60;99.90;;;;;;5135260;27;20525;-57
2022/07/03 01:12:54;;;;;;;15.40;2.80;;;19.50;99.90;;;;;;5135569;27;20543;-56
2022/07/03 01:15:47;;;;;;;12.00;3.10;;;19.40;99.90;;;;;;5135547;27;20164;-56
2022/07/03 01:18:32;;;;;;;8.68;2.58;;;19.40;99.90;;;;;;5135114;27;20159;-57
2022/07/03 01:21:07;;;;;;;9.55;2.67;;;19.40;99.90;;;;;;5135319;27;20301;-56
2022/07/03 01:23:55;;;;;;;9.05;3.00;;;19.50;99.90;;;;;;5135145;27;20159;-56
2022/07/03 01:26:26;;;;;;;10.25;2.35;;;19.40;99.90;;;;;;5135074;27;20215;-56
2022/07/03 01:28:52;;;;;;;6.95;2.95;;;19.50;99.90;;;;;;5135319;27;20247;-56
2022/07/03 01:31:22;;;;;;;13.05;2.50;;;19.30;99.90;;;;;;5116538;27;20665;-57
2022/07/03 01:33:51;;;;;;;7.65;2.78;;;19.30;99.90;;;;;;5135115;27;20168;-56
2022/07/03 01:36:21;;;;;;;12.13;2.65;;;19.40;99.90;;;;;;5134787;27;20175;-56
2022/07/03 01:38:49;;;;;;;15.23;2.75;;;19.40;99.90;;;;;;5135014;27;20187;-55
2022/07/03 01:41:15;;;;;;;8.93;2.53;;;19.30;99.90;;;;;;5134728;27;20175;-56
2022/07/03 01:43:49;;;;;;;15.40;2.75;;;19.20;99.90;;;;;;5134625;27;20168;-56
2022/07/03 01:46:17;;;;;;;11.50;2.75;;;19.20;99.90;;;;;;5134537;27;20195;-56
2022/07/03 01:48:45;;;;;;;18.23;3.10;;;19.30;99.90;;;;;;5134563;27;20167;-55
2022/07/03 01:51:15;;;;;;;16.85;2.85;;;19.20;99.90;;;;;;5134459;27;20212;-56
2022/07/03 01:53:47;;;;;;;10.75;2.35;;;19.20;99.90;;;;;;5134438;27;20659;-56
2022/07/03 01:56:15;;;;;;;20.23;2.92;;;19.20;99.90;;;;;;5134359;27;20772;-56
2022/07/03 01:58:40;;;;;;;11.25;3.10;;;19.10;99.90;;;;;;5134185;27;20183;-56
2022/07/03 02:01:23;;;;;;;13.73;2.97;;;19.10;99.90;;;;;;5134135;27;20160;-56
2022/07/03 02:04:11;;;;;;;21.00;2.88;;;19.20;99.90;;;;;;5116098;27;20164;-56
2022/07/03 02:06:43;;;;;;;19.70;3.67;;;19.10;99.90;;;;;;5133631;27;20212;-56
2022/07/03 02:09:11;;;;;;;20.40;3.13;;;19.10;99.90;;;;;;5134108;27;20532;-56
2022/07/03 02:11:43;;;;;;;17.77;2.97;;;19.10;99.90;;;;;;5134292;27;20195;-56
2022/07/03 02:14:19;;;;;;;14.90;3.65;;;19.10;99.90;;;;;;5134122;27;20160;-56
2022/07/03 02:17:08;;;;;;;21.40;3.30;;;19.10;99.90;;;;;;5134249;27;20583;-56
2022/07/03 02:19:53;;;;;;;17.02;2.92;;;19.10;99.90;;;;;;5133998;27;20209;-57
2022/07/03 02:22:24;;;;;;;16.35;3.25;;;19.10;99.90;;;;;;5134106;27;20250;-57
2022/07/03 02:24:50;;;;;;;21.58;3.20;;;19.20;99.90;;;;;;5133647;27;20638;-56
2022/07/03 02:27:19;;;;;;;18.17;2.95;;;19.10;99.90;;;;;;5115362;27;20298;-56
2022/07/03 02:30:09;;;;;;;15.20;2.60;;;19.10;99.90;;;;;;5133676;27;20632;-57
2022/07/03 02:32:42;;;;;;;14.85;3.10;;;19.10;99.90;;;;;;5133936;27;20558;-56
2022/07/03 02:35:19;;;;;;;11.95;2.55;;;19.10;99.90;;;;;;5133675;27;20490;-56
2022/07/03 02:37:50;;;;;;;12.27;2.75;;;19.00;99.90;;;;;;5115085;27;20179;-55
2022/07/03 02:40:25;;;;;;;14.55;3.05;;;19.00;99.90;;;;;;5133635;27;20175;-56
2022/07/03 02:43:17;;;;;;;21.75;3.72;;;19.00;99.90;;;;;;5133503;27;20236;-56
2022/07/03 02:45:59;;;;;;;17.73;3.75;;;18.90;99.90;;;;;;5133530;27;20175;-56
2022/07/03 02:48:33;;;;;;;23.42;3.53;;;18.90;99.90;;;;;;5133850;27;20518;-56
2022/07/03 02:51:05;;;;;;;13.80;3.15;;;18.90;99.90;;;;;;5133413;27;20152;-57
2022/07/03 02:53:41;;;;;;;15.85;3.30;;;18.80;99.90;;;;;;5133441;27;20171;-57
2022/07/03 02:56:30;;;;;;;22.45;3.50;;;18.80;99.90;;;;;;5133548;27;20216;-56
2022/07/03 02:59:30;;;;;;;15.77;3.10;;;18.80;99.90;;;;;;5133436;27;20172;-55
2022/07/03 03:02:05;;;;;;;14.27;2.80;;;18.80;99.90;;;;;;5132505;27;20702;-56
2022/07/03 03:04:34;;;;;;;13.18;2.83;;;18.80;99.90;;;;;;5114700;27;20168;-55
2022/07/03 03:07:13;;;;;;;13.60;2.80;;;18.80;99.90;;;;;;5115094;27;20545;-53
2022/07/03 03:09:43;;;;;;;11.13;2.92;;;18.80;99.90;;;;;;5133078;27;20621;-56
2022/07/03 03:12:10;;;;;;;13.85;2.75;;;18.70;99.90;;;;;;5132608;27;20172;-54
2022/07/03 03:14:45;;;;;;;22.48;3.60;;;18.60;99.90;;;;;;5114516;28;20519;-54
2022/07/03 03:17:23;;;;;;;12.25;2.90;;;18.60;99.90;;;;;;5133058;27;20262;-54
2022/07/03 03:19:54;;;;;;;13.73;2.60;;;18.60;99.90;;;;;;5132566;27;20171;-54
2022/07/03 03:22:27;;;;;;;14.32;3.00;;;18.60;99.90;;;;;;5133235;27;20172;-55
2022/07/03 03:24:53;;;;;;;14.00;2.50;;;18.50;99.90;;;;;;5133213;27;20208;-54
2022/07/03 03:27:19;;;;;;;10.80;2.70;;;18.50;99.90;;;;;;5133057;27;20207;-54
2022/07/03 03:29:46;;;;;;;7.32;2.55;;;15.70;99.90;;;;;;5132878;28;20287;-53
2022/07/03 03:32:12;;;;;;;12.90;2.80;;;18.40;99.90;;;;;;5132812;28;20168;-55
2022/07/03 03:34:40;;;;;;;12.25;2.88;;;18.40;99.90;;;;;;5132849;28;20176;-54
2022/07/03 03:37:06;;;;;;;7.30;2.42;;;18.40;99.90;;;;;;5132760;28;20167;-54
2022/07/03 03:39:32;;;;;;;20.25;2.92;;;18.50;99.90;;;;;;5132860;28;20168;-54
2022/07/03 03:42:00;;;;;;;16.42;2.40;;;18.30;99.90;;;;;;5132768;28;20164;-54
2022/07/03 03:44:26;;;;;;;17.33;2.95;;;18.30;99.90;;;;;;5132693;28;20168;-54
2022/07/03 03:46:52;;;;;;;15.05;2.63;;;18.20;99.90;;;;;;5132905;28;20286;-54
2022/07/03 03:49:18;;;;;;;12.25;2.63;;;18.20;99.90;;;;;;5132642;28;20497;-55
2022/07/03 03:51:44;;;;;;;12.40;2.70;;;18.20;99.90;;;;;;5132700;28;20297;-56
2022/07/03 03:54:10;;;;;;;12.45;2.42;;;18.20;99.90;;;;;;5132624;28;20171;-55
2022/07/03 03:56:35;;;;;;;19.23;2.75;;;18.20;99.90;;;;;;5132869;28;20175;-54
2022/07/03 03:59:01;;;;;;;10.43;2.58;;;18.30;99.90;;;;;;5132578;28;20251;-56
2022/07/03 04:01:26;;;;;;;12.82;2.75;;;18.30;99.90;;;;;;5132533;28;20251;-55
2022/07/03 04:03:52;;;;;;;11.82;2.65;;;18.10;99.90;;;;;;5132894;28;20176;-55
2022/07/03 04:06:19;;;;;;;12.88;3.08;;;18.00;99.90;;;;;;5132406;28;20621;-56
2022/07/03 04:08:45;;;;;;;18.42;3.55;;;17.90;99.90;;;;;;5132438;28;20656;-56
2022/07/03 04:11:10;;;;;;;10.13;2.75;;;17.90;99.90;;;;;;5132432;28;20168;-56
2022/07/03 04:13:36;;;;;;;16.05;3.05;;;18.10;99.90;;;;;;5132421;28;20246;-56
2022/07/03 04:16:02;;;;;;;16.83;2.95;;;18.30;99.90;;;;;;5132470;28;20164;-56
2022/07/03 04:18:27;;;;;;;17.25;3.22;;;18.30;99.90;;;;;;5132382;28;20172;-56
2022/07/03 04:20:53;;;;;;;16.83;3.05;;;18.30;99.90;;;;;;5132941;28;20220;-56
2022/07/03 04:23:19;;;;;;;9.82;2.22;;;18.30;99.90;;;;;;5134736;27;20656;-56
2022/07/03 04:25:45;;;;;;;8.93;2.28;;;18.30;99.90;;;;;;5136040;27;20219;-55
2022/07/03 04:28:10;;;;;;;6.05;2.10;;;18.00;99.90;;;;;;5136141;27;20212;-56
2022/07/03 04:30:36;;;;;;;9.45;2.40;;;17.90;99.90;;;;;;5136083;27;20160;-55
2022/07/03 04:33:02;;;;;;;8.40;2.60;;;17.70;99.90;;;;;;5136292;27;20259;-56
2022/07/03 04:35:27;;;;;;;6.78;2.25;;;17.60;99.90;;;;;;5136206;27;20164;-54
2022/07/03 04:37:53;;;;;;;8.55;2.47;;;17.70;99.90;;;;;;5135996;27;20160;-54
2022/07/03 04:40:19;;;;;;;5.15;2.40;;;17.90;99.90;;;;;;5135631;27;20577;-56
2022/07/03 04:42:44;;;;;;;4.85;2.10;;;17.90;99.90;;;;;;5135781;27;20168;-56
2022/07/03 04:45:10;;;;;;;8.25;2.53;;;18.00;99.90;;;;;;5135818;27;20175;-55
2022/07/03 04:47:36;;;;;;;6.55;2.35;;;18.00;99.90;;;;;;5135805;27;20625;-56
2022/07/03 04:50:02;;;;;;;4.63;2.13;;;18.10;99.90;;;;;;5135912;27;20186;-56
2022/07/03 04:52:27;;;;;;;3.55;2.25;;;18.20;99.90;;;;;;5135609;27;20208;-56
2022/07/03 04:54:53;;;;;;;5.47;2.30;;;18.50;99.90;;;;;;5135994;27;20500;-56
2022/07/03 04:57:18;;;;;;;4.57;2.10;;;18.60;99.90;;;;;;5135633;27;20171;-56
2022/07/03 04:59:44;;;;;;;6.93;2.13;;;18.60;99.90;;;;;;5135799;27;20172;-55
2022/07/03 05:02:10;;;;;;;5.25;2.20;;;18.80;99.90;;;;;;5135568;27;20628;-56
2022/07/03 05:04:35;;;;;;;5.63;2.30;;;19.00;99.90;;;;;;5135467;27;20238;-56
2022/07/03 05:07:01;;;;;;;7.38;2.38;;;19.00;99.90;;;;;;5135356;27;20286;-56
2022/07/03 05:09:27;;;;;;;5.70;2.30;;;18.90;99.90;;;;;;5135494;27;20637;-55
2022/07/03 05:11:52;;;;;;;9.48;2.53;;;18.80;99.90;;;;;;5135855;27;20539;-56
2022/07/03 05:14:18;;;;;;;5.30;2.22;;;18.80;99.90;;;;;;5135202;27;20164;-56
2022/07/03 05:16:44;;;;;;;6.13;2.20;;;18.90;99.90;;;;;;5135179;27;20160;-55
2022/07/03 05:19:09;;;;;;;6.60;2.50;;;19.00;99.90;;;;;;5135367;27;20172;-56
2022/07/03 05:21:35;;;;;;;6.25;2.75;;;19.10;99.90;;;;;;5135022;27;20196;-57
2022/07/03 05:24:01;;;;;;;6.88;2.40;;;19.20;99.90;;;;;;5135244;27;20529;-56
2022/07/03 05:26:26;;;;;;;5.28;2.30;;;19.20;99.90;;;;;;5134781;27;20215;-53
2022/07/03 05:28:52;;;;;;;4.32;2.55;;;19.10;99.90;;;;;;5135361;27;20167;-56
2022/07/03 05:31:17;;;;;;;5.55;2.40;;;19.10;99.90;;;;;;5134926;27;20217;-56
2022/07/03 05:33:43;;;;;;;6.40;2.63;;;19.10;99.90;;;;;;5134258;27;20168;-55
2022/07/03 05:36:09;;;;;;;5.60;2.50;;;19.20;99.90;;;;;;5134677;27;20638;-56
2022/07/03 05:41:19;;;;;;;4.07;2.63;;;19.30;99.90;;;;;;5134995;27;20167;-56
2022/07/03 05:43:44;;;;;;;9.10;2.88;;;19.40;99.90;;;;;;5134702;27;20172;-56
2022/07/03 05:46:10;;;;;;;4.22;2.72;;;19.30;99.90;;;;;;5116193;27;20168;-56
2022/07/03 05:48:36;;;;;;;6.30;2.90;;;19.50;99.90;;;;;;5134642;27;20179;-56
2022/07/03 05:51:02;;;;;;;3.88;3.10;;;19.40;99.90;;;;;;5134514;27;20159;-55
2022/07/03 05:53:27;;;;;;;5.45;3.00;;;19.60;99.90;;;;;;5116036;27;20537;-55
2022/07/03 05:55:53;;;;;;;7.32;3.20;;;19.70;99.90;;;;;;5134430;27;20171;-56
2022/07/03 05:58:19;;;;;;;4.32;3.00;;;19.60;99.90;;;;;;5134137;27;20247;-53
2022/07/03 06:00:44;;;;;;;4.70;2.90;;;19.90;99.90;;;;;;5133740;27;20525;-52
2022/07/03 06:03:15;;;;;;;5.47;3.13;;;20.00;99.90;;;;;;5133664;27;20593;-53
2022/07/03 06:05:41;;;;;;;5.68;3.22;;;19.90;99.90;;;;;;5133859;27;20621;-56
2022/07/03 06:08:06;;;;;;;4.03;3.05;;;19.90;99.90;;;;;;5133738;27;20257;-55
2022/07/03 06:10:33;;;;;;;5.75;2.90;;;19.90;99.90;;;;;;5133781;27;20164;-56
2022/07/03 06:12:59;;;;;;;5.18;3.22;;;19.90;99.90;;;;;;5133294;27;20168;-56
2022/07/03 06:15:24;;;;;;;5.57;3.38;;;20.00;99.90;;;;;;5134436;27;20640;-55
2022/07/03 06:17:50;;;;;;;6.25;3.13;;;20.10;99.90;;;;;;5134046;27;20168;-56
2022/07/03 06:20:16;;;;;;;4.88;3.15;;;20.10;99.90;;;;;;5133993;27;20498;-56
2022/07/03 06:22:42;;;;;;;5.75;3.60;;;20.20;99.90;;;;;;5133966;27;20172;-56
2022/07/03 06:25:08;;;;;;;5.70;2.85;;;20.40;99.90;;;;;;5133889;27;20278;-56
2022/07/03 06:27:34;;;;;;;6.40;3.58;;;20.30;99.90;;;;;;5133719;27;20207;-56
2022/07/03 06:30:00;;;;;;;5.57;3.45;;;20.30;99.90;;;;;;5133708;27;20164;-56
2022/07/03 06:32:25;;;;;;;10.23;3.80;;;20.10;99.90;;;;;;5133683;27;20182;-53
2022/07/03 06:34:51;;;;;;;7.03;3.38;;;20.40;99.90;;;;;;5133883;27;20164;-53
2022/07/03 06:37:17;;;;;;;4.03;3.20;;;20.20;99.90;;;;;;5133570;27;20192;-54
2022/07/03 06:39:42;;;;;;;4.78;3.97;;;20.30;99.90;;;;;;5133714;27;20171;-54
2022/07/03 06:42:08;;;;;;;6.45;3.85;;;20.40;99.90;;;;;;5133397;27;20160;-55
2022/07/03 06:44:34;;;;;;;7.47;3.90;;;20.40;99.90;;;;;;5133443;27;20574;-56
2022/07/03 06:47:02;;;;;;;7.68;3.72;;;20.50;99.90;;;;;;5133428;27;20206;-54
2022/07/03 06:49:32;;;;;;;5.50;3.47;;;20.50;99.90;;;;;;5133641;27;20168;-54
2022/07/03 06:51:58;;;;;;;4.85;3.42;;;20.40;99.90;;;;;;5133346;27;20175;-55
2022/07/03 06:54:24;;;;;;;7.80;4.10;;;20.70;99.90;;;;;;5133672;27;20156;-55
2022/07/03 06:56:49;;;;;;;7.70;3.25;;;20.80;99.90;;;;;;5133282;27;20164;-55
2022/07/03 06:59:15;;;;;;;3.97;3.58;;;20.80;99.90;;;;;;5133331;27;20187;-55
2022/07/03 07:01:41;;;;;;;4.53;3.03;;;20.90;99.90;;;;;;5133227;27;20178;-57
2022/07/03 07:04:06;;;;;;;8.52;3.55;;;20.90;99.90;;;;;;5133185;27;20163;-54
2022/07/03 07:06:32;;;;;;;7.00;3.08;;;20.90;99.90;;;;;;5133066;27;20274;-55
2022/07/03 07:08:58;;;;;;;7.15;3.47;;;20.90;99.90;;;;;;5133153;27;20636;-54
2022/07/03 07:11:23;;;;;;;6.07;2.92;;;21.10;99.90;;;;;;5133467;27;20168;-57
2022/07/03 07:13:49;;;;;;;5.35;3.53;;;21.20;99.90;;;;;;5133280;27;20167;-56
2022/07/03 07:16:14;;;;;;;6.90;3.53;;;21.10;99.90;;;;;;5132997;27;20219;-56
2022/07/03 07:18:41;;;;;;;4.32;3.28;;;21.10;99.90;;;;;;5132969;27;20507;-56
2022/07/03 07:21:06;;;;;;;4.40;3.05;;;21.40;99.90;;;;;;5132928;27;20163;-56
2022/07/03 07:23:32;;;;;;;3.40;2.60;;;21.50;99.90;;;;;;5132918;27;20175;-56
2022/07/03 07:25:58;;;;;;;7.22;2.83;;;21.60;99.90;;;;;;5132795;27;20223;-57
2022/07/03 07:28:24;;;;;;;5.75;2.83;;;21.90;99.90;;;;;;5133168;27;20691;-54
2022/07/03 07:30:53;;;;;;;7.15;2.85;;;21.80;99.90;;;;;;5132897;28;20164;-53
2022/07/03 07:33:19;;;;;;;4.93;2.78;;;21.90;99.90;;;;;;5149234;27;20171;-59
2022/07/03 07:35:45;;;;;;;3.38;2.28;;;21.70;99.90;;;;;;5148106;27;20176;-52
2022/07/03 07:38:10;;;;;;;5.40;2.58;;;21.80;99.90;;;;;;5131369;28;20239;-62
2022/07/03 07:40:36;;;;;;;5.93;2.28;;;21.70;99.90;;;;;;5131461;28;20621;-63
2022/07/03 07:43:02;;;;;;;3.35;2.13;;;21.80;99.90;;;;;;5131063;28;20172;-62
2022/07/03 07:45:28;;;;;;;3.03;1.88;;;22.10;99.90;;;;;;5131347;28;20164;-58
2022/07/03 07:47:53;;;;;;;2.53;1.65;;;22.10;99.90;;;;;;5130988;27;20680;-59
2022/07/03 07:50:19;;;;;;;5.53;2.13;;;22.20;99.90;;;;;;5131017;28;20191;-53
2022/07/03 07:52:44;;;;;;;3.03;1.40;;;22.40;99.90;;;;;;5131423;28;20540;-59
2022/07/03 07:55:10;;;;;;;4.25;2.20;;;22.40;99.90;;;;;;5131283;28;20243;-56
2022/07/03 07:57:37;;;;;;;2.95;1.77;;;22.40;99.90;;;;;;5132744;27;20593;-52
2022/07/03 08:00:07;;;;;;;7.38;1.92;;;22.40;99.90;;;;;;5135361;27;20627;-58
2022/07/03 08:05:35;;;;;;;3.17;1.60;;;22.70;99.90;;;;;;5135146;27;20160;-58
2022/07/03 08:08:03;;;;;;;3.67;1.60;;;22.50;99.90;;;;;;5135146;27;20195;-55
2022/07/03 08:10:28;;;;;;;5.38;1.92;;;22.60;99.90;;;;;;5135341;27;20168;-56
2022/07/03 08:12:54;;;;;;;2.67;1.73;;;22.80;99.90;;;;;;5135355;27;20179;-56
2022/07/03 08:15:20;;;;;;;3.13;1.70;;;22.70;99.90;;;;;;5135136;27;20164;-54
2022/07/03 08:17:45;;;;;;;3.53;1.80;;;22.90;99.90;;;;;;5135047;27;20553;-57
2022/07/03 08:20:11;;;;;;;2.35;1.42;;;23.00;99.90;;;;;;5134900;27;20536;-55
2022/07/03 08:22:36;;;;;;;2.78;1.85;;;23.10;99.90;;;;;;5116601;27;20176;-60
2022/07/03 08:25:02;;;;;;;4.03;1.67;;;23.40;99.90;;;;;;5134926;27;20212;-53
2022/07/03 08:27:28;;;;;;;3.72;1.60;;;23.50;99.90;;;;;;5134692;27;20200;-58
2022/07/03 08:29:53;;;;;;;3.80;1.80;;;23.50;99.90;;;;;;5134984;27;20164;-61
2022/07/03 08:32:19;;;;;;;3.05;1.80;;;23.40;99.90;;;;;;5134956;27;20178;-64
2022/07/03 08:34:45;;;;;;;3.22;2.05;;;23.50;99.90;;;;;;5134756;27;20176;-57
2022/07/03 08:37:10;;;;;;;3.85;2.10;;;23.50;99.90;;;;;;5134777;27;20231;-59
2022/07/03 08:39:36;;;;;;;2.55;1.80;;;23.50;99.90;;;;;;5134444;27;20160;-60
2022/07/03 08:42:02;;;;;;;3.92;1.80;;;23.50;99.90;;;;;;5134594;27;20199;-62
2022/07/03 08:44:28;;;;;;;1.90;1.80;;;23.40;99.90;;;;;;5116022;27;20262;-61
2022/07/03 08:46:56;;;;;;;2.88;1.80;;;23.70;99.90;;;;;;5134923;27;20204;-62
2022/07/03 08:49:22;;;;;;;6.78;2.00;;;23.70;99.90;;;;;;5134751;27;20225;-61
2022/07/03 08:51:49;;;;;;;7.05;2.30;;;23.80;99.90;;;;;;5134659;27;20178;-61
2022/07/03 08:54:15;;;;;;;3.00;1.83;;;23.80;99.90;;;;;;5134229;27;20185;-62
2022/07/03 08:56:42;;;;;;;3.25;2.05;;;23.80;99.90;;;;;;5134352;27;20172;-61
2022/07/03 08:59:08;;;;;;;6.07;1.95;;;23.70;99.90;;;;;;5134568;27;20172;-62
2022/07/03 09:01:34;;;;;;;5.63;2.35;;;23.90;99.90;;;;;;5116023;27;20705;-61
2022/07/03 09:04:01;;;;;;;4.68;1.92;;;23.90;99.90;;;;;;5134334;27;20199;-62
2022/07/03 09:06:33;;;;;;;4.07;2.47;;;24.30;99.90;;;;;;5134105;27;20281;-61
2022/07/03 09:09:01;;;;;;;6.30;2.35;;;24.30;99.90;;;;;;5132843;27;20251;-61
2022/07/03 09:11:27;;;;;;;8.50;2.40;;;24.30;99.90;;;;;;5133901;27;20584;-61
2022/07/03 09:13:53;;;;;;;8.32;2.92;;;24.50;99.90;;;;;;5115720;27;20296;-61
2022/07/03 09:16:18;;;;;;;3.85;2.33;;;24.40;99.90;;;;;;5134094;27;20251;-62
2022/07/03 09:18:45;;;;;;;4.90;2.75;;;24.50;99.90;;;;;;5133775;27;20157;-61
2022/07/03 09:21:11;;;;;;;6.15;2.60;;;24.40;99.90;;;;;;5133680;27;20651;-60
2022/07/03 09:23:42;;;;;;;6.68;2.50;;;24.40;99.90;;;;;;5133702;27;20726;-61
2022/07/03 09:26:16;;;;;;;4.53;2.42;;;24.70;99.90;;;;;;5133600;27;20244;-62
2022/07/03 09:28:44;;;;;;;7.10;2.50;;;24.50;99.90;;;;;;5133838;27;20187;-61
2022/07/03 09:31:11;;;;;;;5.75;2.40;;;24.60;99.90;;;;;;5133898;27;20248;-57
2022/07/03 09:33:55;;;;;;;6.03;2.88;;;24.90;99.90;;;;;;5133605;27;20291;-59
2022/07/03 09:36:23;;;;;;;7.18;2.50;;;24.80;99.90;;;;;;5133421;27;20171;-58
2022/07/03 09:38:48;;;;;;;5.35;2.47;;;24.90;99.90;;;;;;5133657;27;20168;-58
2022/07/03 09:41:14;;;;;;;3.33;2.65;;;25.10;99.90;;;;;;5133261;27;20164;-58
2022/07/03 09:43:44;;;;;;;3.85;2.45;;;25.20;99.90;;;;;;5133379;27;20164;-58
2022/07/03 09:46:10;;;;;;;5.75;2.50;;;24.90;99.90;;;;;;5133287;27;20570;-58
2022/07/03 09:48:37;;;;;;;4.55;2.45;;;25.00;99.90;;;;;;5114815;27;20184;-58
2022/07/03 09:51:28;;;;;;;4.55;2.50;;;25.00;99.90;;;;;;5133510;27;20164;-62
2022/07/03 09:53:58;;;;;;;3.35;2.00;;;25.20;99.90;;;;;;5133462;27;20156;-58
2022/07/03 09:56:37;;;;;;;4.22;2.40;;;25.20;99.90;;;;;;5133297;27;20497;-58
2022/07/03 09:59:13;;;;;;;3.72;2.45;;;25.20;99.90;;;;;;5133075;27;20216;-58
2022/07/03 10:01:46;;;;;;;4.65;2.25;;;25.20;99.90;;;;;;5133241;27;20168;-58
2022/07/03 10:04:30;;;;;;;4.63;2.13;;;25.20;99.90;;;;;;5132915;27;20175;-62
2022/07/03 10:06:59;;;;;;;4.15;2.58;;;25.30;99.90;;;;;;5133084;27;20199;-61
2022/07/03 10:09:27;;;;;;;4.65;2.22;;;25.50;99.90;;;;;;5133295;27;20218;-60
2022/07/03 10:11:54;;;;;;;5.30;2.10;;;25.80;99.90;;;;;;5133121;27;20160;-60
2022/07/03 10:14:23;;;;;;;4.55;2.08;;;25.70;99.90;;;;;;5132706;27;20664;-59
2022/07/03 10:16:49;;;;;;;3.40;2.13;;;25.60;99.90;;;;;;5132748;27;20174;-60
2022/07/03 10:19:21;;;;;;;5.35;2.10;;;25.50;99.90;;;;;;5132913;27;20160;-59
2022/07/03 10:22:05;;;;;;;4.05;2.08;;;25.60;99.90;;;;;;5132620;27;20179;-61
2022/07/03 10:24:31;;;;;;;3.22;1.90;;;25.90;99.90;;;;;;5132509;27;20237;-61
2022/07/03 10:26:57;;;;;;;2.88;1.80;;;26.00;99.90;;;;;;5132359;27;20236;-58
2022/07/03 10:29:26;;;;;;;3.22;2.13;;;25.80;99.90;;;;;;5132729;27;20179;-61
2022/07/03 10:31:52;;;;;;;2.50;1.80;;;26.20;99.90;;;;;;5133014;27;20228;-59
2022/07/03 10:34:23;;;;;;;6.43;1.65;;;26.00;99.90;;;;;;5132552;27;20163;-57
2022/07/03 10:36:52;;;;;;;5.38;2.00;;;26.30;99.90;;;;;;5132272;27;20167;-57
2022/07/03 10:39:37;;;;;;;4.25;1.73;;;26.30;99.90;;;;;;5132568;27;20166;-59
2022/07/03 10:45:09;;;;;;;4.30;1.60;;;26.30;99.90;;;;;;5132209;27;20220;-59
2022/07/03 10:47:49;;;;;;;3.15;1.95;;;26.20;99.90;;;;;;5132332;27;20291;-58
2022/07/03 10:50:23;;;;;;;2.70;1.60;;;26.20;99.90;;;;;;5113565;27;20167;-57
2022/07/03 10:52:49;;;;;;;2.72;1.60;;;26.30;99.90;;;;;;5132017;27;20651;-60
2022/07/03 10:55:16;;;;;;;3.97;1.40;;;26.30;99.90;;;;;;5132054;27;20177;-58
2022/07/03 10:57:43;;;;;;;4.88;2.03;;;26.30;99.90;;;;;;5132197;27;20688;-58
2022/07/03 11:00:18;;;;;;;4.40;1.63;;;26.40;99.90;;;;;;5131854;27;20159;-59
2022/07/03 11:02:47;;;;;;;2.53;1.77;;;26.30;99.90;;;;;;5131939;27;20167;-58
2022/07/03 11:05:19;;;;;;;1.58;1.48;;;26.30;99.90;;;;;;5131883;27;20161;-60
2022/07/03 11:07:51;;;;;;;3.70;1.60;;;26.60;99.90;;;;;;5113466;27;20598;-60
2022/07/03 11:10:17;;;;;;;2.50;1.60;;;26.90;99.90;;;;;;5131744;27;20163;-57
2022/07/03 11:13:01;;;;;;;4.97;2.13;;;26.70;99.90;;;;;;5131721;27;20535;-58
2022/07/03 11:15:38;;;;;;;3.67;1.50;;;26.50;99.90;;;;;;5131925;27;20167;-59
2022/07/03 11:18:13;;;;;;;2.72;1.50;;;26.70;99.90;;;;;;5131600;27;20171;-57
2022/07/03 11:20:41;;;;;;;2.30;1.40;;;26.70;99.90;;;;;;5131645;27;20208;-59
2022/07/03 11:23:10;;;;;;;3.22;1.52;;;26.70;99.90;;;;;;5112337;27;20531;-58
2022/07/03 11:25:47;;;;;;;2.17;1.50;;;26.70;99.90;;;;;;5131062;27;20733;-57
2022/07/03 11:28:34;;;;;;;4.57;1.50;;;26.90;99.90;;;;;;5131593;27;20202;-58
2022/07/03 11:31:21;;;;;;;3.95;1.77;;;26.90;99.90;;;;;;5131405;28;20220;-57
2022/07/03 11:33:56;;;;;;;2.70;1.83;;;26.80;99.90;;;;;;5130487;27;20166;-58
2022/07/03 11:36:33;;;;;;;2.85;1.70;;;26.80;99.90;;;;;;5131582;28;20224;-58
2022/07/03 11:38:58;;;;;;;3.58;1.95;;;27.10;99.90;;;;;;5132080;28;20223;-57
2022/07/03 11:41:25;;;;;;;3.00;1.63;;;27.00;99.90;;;;;;5136844;27;20166;-57
2022/07/03 11:44:01;;;;;;;4.32;1.85;;;27.40;99.90;;;;;;5152041;27;20165;-57
2022/07/03 11:46:29;;;;;;;2.58;1.65;;;27.10;99.90;;;;;;5152209;27;20165;-57
2022/07/03 11:49:04;;;;;;;5.22;1.17;;;27.40;99.90;;;;;;5138489;27;20262;-58
2022/07/03 11:51:30;;;;;;;1.67;1.38;;;27.10;99.90;;;;;;5131228;28;20215;-57
2022/07/03 11:53:56;;;;;;;2.78;1.73;;;27.40;99.90;;;;;;5142550;27;20202;-57
2022/07/03 11:56:22;;;;;;;5.40;2.15;;;27.10;99.90;;;;;;5152241;27;20245;-57
2022/07/03 11:58:51;;;;;;;3.47;1.45;;;27.10;99.90;;;;;;5151935;27;20221;-57
2022/07/03 12:01:26;;;;;;;8.75;1.90;;;27.10;99.90;;;;;;5151997;27;20163;-58
2022/07/03 12:03:53;;;;;;;1.63;1.50;;;27.10;99.90;;;;;;5152159;27;20162;-58
2022/07/03 12:06:19;;;;;;;1.80;1.50;;;27.00;99.90;;;;;;5151841;27;20212;-57
2022/07/03 12:08:48;;;;;;;2.53;1.50;;;27.20;99.90;;;;;;5151908;27;20617;-60
2022/07/03 12:11:16;;;;;;;2.55;1.50;;;26.90;99.90;;;;;;5152203;27;20178;-60
2022/07/03 12:13:43;;;;;;;5.32;1.48;;;27.30;99.90;;;;;;5151758;27;20181;-58
2022/07/03 12:16:12;;;;;;;3.50;1.40;;;27.10;99.90;;;;;;5151717;27;20163;-60
2022/07/03 12:18:50;;;;;;;3.00;1.52;;;23.70;99.90;;;;;;5151767;27;20178;-59
2022/07/03 12:21:16;;;;;;;2.75;1.50;;;27.10;99.90;;;;;;5151886;27;20205;-60
2022/07/03 12:23:54;;;;;;;2.55;1.60;;;27.00;99.90;;;;;;5151691;27;20166;-61
2022/07/03 12:26:29;;;;;;;2.65;1.30;;;27.10;99.90;;;;;;5151492;27;20263;-57
2022/07/03 12:28:59;;;;;;;5.63;1.70;;;27.20;99.90;;;;;;5152214;27;20341;-60
2022/07/03 12:31:25;;;;;;;2.83;1.40;;;27.20;99.90;;;;;;5151991;27;20161;-58
2022/07/03 12:33:52;;;;;;;7.68;1.70;;;26.90;99.90;;;;;;5132941;27;20253;-57
2022/07/03 12:36:17;;;;;;;3.47;1.35;;;26.80;99.90;;;;;;5151613;27;20159;-57
2022/07/03 12:38:48;;;;;;;9.10;1.92;;;26.70;99.90;;;;;;5151462;27;20185;-58
2022/07/03 12:41:15;;;;;;;2.13;1.27;;;26.70;99.90;;;;;;5151541;27;20171;-60
2022/07/03 12:43:44;;;;;;;3.05;1.48;;;26.60;99.90;;;;;;5152756;27;20193;-57
2022/07/03 12:46:23;;;;;;;2.42;1.38;;;26.50;99.90;;;;;;5155273;27;20215;-57
2022/07/03 12:48:56;;;;;;;5.68;1.55;;;27.20;99.90;;;;;;5155136;27;20182;-57
2022/07/03 12:51:43;;;;;;;6.40;1.52;;;27.40;99.90;;;;;;5155394;27;20258;-58
2022/07/03 12:54:15;;;;;;;4.80;1.27;;;27.70;99.90;;;;;;5155071;27;20170;-57
2022/07/03 12:56:42;;;;;;;5.88;1.70;;;27.80;99.90;;;;;;5139721;27;20705;-57
2022/07/03 12:59:25;;;;;;;4.30;1.48;;;27.80;99.90;;;;;;5134279;27;20170;-58
2022/07/03 13:02:06;;;;;;;3.47;1.40;;;28.10;99.90;;;;;;5134363;27;20660;-57
2022/07/03 13:04:35;;;;;;;4.22;1.48;;;28.20;99.90;;;;;;5134124;27;20183;-61